Terminal Aerodrome Forecast
Issued by NWS Sterling, VA

Current Version | Previous Version | Graphics & Text | Print | Product List | Glossary On
Versions: 1 2 3 4 5 6 7 8 9 10 11 12 13 14 15
000
FTUS41 KLWX 170500
TAFMRB
TAF
KMRB 170529Z 1706/1806 07004KT P6SM FEW250
     FM170900 01004KT P6SM FEW250
     FM171400 12009KT P6SM SKC
     FM180400 12005KT P6SM BKN200=

USA.gov is the U.S. government's official web portal to all federal, state and local government web resources and services.